sensor_id;sensor_type;location;lat;lon;timestamp;P1;durP1;ratioP1;P2;durP2;ratioP2
62457;SDS011;48509;52.122;5.250;2024-03-07T00:01:08;79.3;;;49.6;;
62457;SDS011;48509;52.122;5.250;2024-03-07T00:04:22;83.2;;;53.6;;
62457;SDS011;48509;52.122;5.250;2024-03-07T00:06:01;78.3;;;50.2;;
62457;SDS011;48509;52.122;5.250;2024-03-07T00:07:37;84.2;;;53.4;;
62457;SDS011;48509;52.122;5.250;2024-03-07T00:10:49;82.8;;;54.4;;
62457;SDS011;48509;52.122;5.250;2024-03-07T00:12:25;73.91;;;48.6;;
62457;SDS011;48509;52.122;5.250;2024-03-07T00:14:01;77.5;;;49.3;;
62457;SDS011;48509;52.122;5.250;2024-03-07T00:15:38;81.7;;;53.4;;
62457;SDS011;48509;52.122;5.250;2024-03-07T00:18:50;90.2;;;55.4;;
62457;SDS011;48509;52.122;5.250;2024-03-07T00:20:26;78.5;;;50.1;;
62457;SDS011;48509;52.122;5.250;2024-03-07T00:22:02;84.9;;;55.3;;
62457;SDS011;48509;52.122;5.250;2024-03-07T00:25:14;84.3;;;53.6;;
62457;SDS011;48509;52.122;5.250;2024-03-07T00:26:50;87.5;;;56.2;;
62457;SDS011;48509;52.122;5.250;2024-03-07T00:28:26;83.8;;;54.9;;
62457;SDS011;48509;52.122;5.250;2024-03-07T00:31:40;87.1;;;54.9;;
62457;SDS011;48509;52.122;5.250;2024-03-07T00:33:16;88.7;;;54.2;;
62457;SDS011;48509;52.122;5.250;2024-03-07T00:34:52;83.2;;;53.1;;
62457;SDS011;48509;52.122;5.250;2024-03-07T00:38:04;85.1;;;53.4;;
62457;SDS011;48509;52.122;5.250;2024-03-07T00:39:40;85.6;;;55.1;;
62457;SDS011;48509;52.122;5.250;2024-03-07T00:41:18;86.7;;;52.2;;
62457;SDS011;48509;52.122;5.250;2024-03-07T00:42:57;79.8;;;51.9;;
62457;SDS011;48509;52.122;5.250;2024-03-07T00:46:10;80.91;;;51.6;;
62457;SDS011;48509;52.122;5.250;2024-03-07T00:47:46;85.0;;;53.2;;
62457;SDS011;48509;52.122;5.250;2024-03-07T00:49:22;83.3;;;52.8;;
62457;SDS011;48509;52.122;5.250;2024-03-07T00:52:34;80.2;;;52.4;;
62457;SDS011;48509;52.122;5.250;2024-03-07T00:54:10;94.8;;;57.8;;
62457;SDS011;48509;52.122;5.250;2024-03-07T00:55:46;85.3;;;54.3;;
62457;SDS011;48509;52.122;5.250;2024-03-07T00:58:58;81.7;;;52.2;;
62457;SDS011;48509;52.122;5.250;2024-03-07T01:00:35;83.2;;;53.5;;
62457;SDS011;48509;52.122;5.250;2024-03-07T01:02:11;90.0;;;56.6;;
62457;SDS011;48509;52.122;5.250;2024-03-07T01:03:48;83.5;;;53.2;;
62457;SDS011;48509;52.122;5.250;2024-03-07T01:07:01;83.1;;;53.6;;
62457;SDS011;48509;52.122;5.250;2024-03-07T01:08:38;95.6;;;59.2;;
62457;SDS011;48509;52.122;5.250;2024-03-07T01:10:15;85.0;;;54.7;;
62457;SDS011;48509;52.122;5.250;2024-03-07T01:13:28;85.2;;;55.3;;
62457;SDS011;48509;52.122;5.250;2024-03-07T01:15:04;97.3;;;57.9;;
62457;SDS011;48509;52.122;5.250;2024-03-07T01:16:41;89.7;;;57.4;;
62457;SDS011;48509;52.122;5.250;2024-03-07T01:19:53;94.4;;;57.3;;
62457;SDS011;48509;52.122;5.250;2024-03-07T01:21:29;95.6;;;57.8;;
62457;SDS011;48509;52.122;5.250;2024-03-07T01:23:05;90.8;;;56.6;;
62457;SDS011;48509;52.122;5.250;2024-03-07T01:24:41;85.4;;;53.9;;
62457;SDS011;48509;52.122;5.250;2024-03-07T01:27:54;79.5;;;51.6;;
62457;SDS011;48509;52.122;5.250;2024-03-07T01:29:30;102.3;;;59.5;;
62457;SDS011;48509;52.122;5.250;2024-03-07T01:31:06;92.4;;;56.1;;
62457;SDS011;48509;52.122;5.250;2024-03-07T01:34:18;83.9;;;53.2;;
62457;SDS011;48509;52.122;5.250;2024-03-07T01:35:54;79.2;;;51.7;;
62457;SDS011;48509;52.122;5.250;2024-03-07T01:37:30;79.41;;;48.4;;
62457;SDS011;48509;52.122;5.250;2024-03-07T01:40:43;83.9;;;53.5;;
62457;SDS011;48509;52.122;5.250;2024-03-07T01:42:20;87.4;;;54.3;;
62457;SDS011;48509;52.122;5.250;2024-03-07T01:43:56;83.3;;;52.2;;
62457;SDS011;48509;52.122;5.250;2024-03-07T01:47:08;89.9;;;54.5;;
62457;SDS011;48509;52.122;5.250;2024-03-07T01:48:44;91.7;;;55.7;;
62457;SDS011;48509;52.122;5.250;2024-03-07T01:50:20;95.4;;;57.6;;
62457;SDS011;48509;52.122;5.250;2024-03-07T01:51:57;83.2;;;51.7;;
62457;SDS011;48509;52.122;5.250;2024-03-07T01:55:15;100.1;;;60.3;;
62457;SDS011;48509;52.122;5.250;2024-03-07T01:56:51;100.1;;;60.3;;
62457;SDS011;48509;52.122;5.250;2024-03-07T01:58:27;90.5;;;56.8;;
62457;SDS011;48509;52.122;5.250;2024-03-07T02:01:43;94.0;;;56.9;;
62457;SDS011;48509;52.122;5.250;2024-03-07T02:03:19;93.5;;;58.0;;
62457;SDS011;48509;52.122;5.250;2024-03-07T02:04:58;94.9;;;58.2;;
62457;SDS011;48509;52.122;5.250;2024-03-07T02:06:34;91.6;;;55.5;;
62457;SDS011;48509;52.122;5.250;2024-03-07T02:09:47;94.7;;;56.8;;
62457;SDS011;48509;52.122;5.250;2024-03-07T02:11:23;81.3;;;51.6;;
62457;SDS011;48509;52.122;5.250;2024-03-07T02:12:59;89.8;;;56.7;;
62457;SDS011;48509;52.122;5.250;2024-03-07T02:16:14;95.7;;;56.8;;
62457;SDS011;48509;52.122;5.250;2024-03-07T02:17:50;90.0;;;53.7;;
62457;SDS011;48509;52.122;5.250;2024-03-07T02:19:26;83.7;;;53.8;;
62457;SDS011;48509;52.122;5.250;2024-03-07T02:22:41;91.6;;;56.1;;
62457;SDS011;48509;52.122;5.250;2024-03-07T02:24:18;95.8;;;59.0;;
62457;SDS011;48509;52.122;5.250;2024-03-07T02:25:54;96.5;;;58.2;;
62457;SDS011;48509;52.122;5.250;2024-03-07T02:27:30;78.8;;;51.8;;
62457;SDS011;48509;52.122;5.250;2024-03-07T02:30:42;87.0;;;53.9;;
62457;SDS011;48509;52.122;5.250;2024-03-07T02:32:18;77.91;;;51.0;;
62457;SDS011;48509;52.122;5.250;2024-03-07T02:33:54;79.8;;;50.8;;
62457;SDS011;48509;52.122;5.250;2024-03-07T02:37:06;89.3;;;56.8;;
62457;SDS011;48509;52.122;5.250;2024-03-07T02:38:42;82.6;;;51.7;;
62457;SDS011;48509;52.122;5.250;2024-03-07T02:40:19;86.0;;;53.6;;
62457;SDS011;48509;52.122;5.250;2024-03-07T02:43:31;89.9;;;55.1;;
62457;SDS011;48509;52.122;5.250;2024-03-07T02:45:07;88.1;;;54.5;;
62457;SDS011;48509;52.122;5.250;2024-03-07T02:46:44;88.5;;;54.1;;
62457;SDS011;48509;52.122;5.250;2024-03-07T02:48:21;82.8;;;52.9;;
62457;SDS011;48509;52.122;5.250;2024-03-07T02:51:33;92.6;;;58.2;;
62457;SDS011;48509;52.122;5.250;2024-03-07T02:53:09;88.2;;;54.7;;
62457;SDS011;48509;52.122;5.250;2024-03-07T02:54:46;83.5;;;54.1;;
62457;SDS011;48509;52.122;5.250;2024-03-07T02:57:58;89.1;;;56.0;;
62457;SDS011;48509;52.122;5.250;2024-03-07T02:59:34;91.9;;;57.5;;
62457;SDS011;48509;52.122;5.250;2024-03-07T03:01:10;88.3;;;53.5;;
62457;SDS011;48509;52.122;5.250;2024-03-07T03:04:24;90.7;;;56.9;;
62457;SDS011;48509;52.122;5.250;2024-03-07T03:06:00;103.6;;;59.2;;
62457;SDS011;48509;52.122;5.250;2024-03-07T03:07:36;94.1;;;56.5;;
62457;SDS011;48509;52.122;5.250;2024-03-07T03:10:49;91.1;;;56.3;;
62457;SDS011;48509;52.122;5.250;2024-03-07T03:12:26;96.2;;;58.9;;
62457;SDS011;48509;52.122;5.250;2024-03-07T03:14:05;85.2;;;53.1;;
62457;SDS011;48509;52.122;5.250;2024-03-07T03:15:41;95.3;;;57.8;;
62457;SDS011;48509;52.122;5.250;2024-03-07T03:18:53;91.0;;;56.3;;
62457;SDS011;48509;52.122;5.250;2024-03-07T03:20:29;92.1;;;56.9;;
62457;SDS011;48509;52.122;5.250;2024-03-07T03:22:05;90.6;;;56.7;;
62457;SDS011;48509;52.122;5.250;2024-03-07T03:25:18;94.0;;;55.8;;
62457;SDS011;48509;52.122;5.250;2024-03-07T03:26:54;110.6;;;63.5;;
62457;SDS011;48509;52.122;5.250;2024-03-07T03:28:30;106.3;;;62.4;;
62457;SDS011;48509;52.122;5.250;2024-03-07T03:31:43;96.7;;;59.7;;
62457;SDS011;48509;52.122;5.250;2024-03-07T03:33:19;95.0;;;57.6;;
62457;SDS011;48509;52.122;5.250;2024-03-07T03:34:55;102.5;;;60.4;;
62457;SDS011;48509;52.122;5.250;2024-03-07T03:36:31;97.5;;;60.2;;
62457;SDS011;48509;52.122;5.250;2024-03-07T03:39:44;102.5;;;60.0;;
62457;SDS011;48509;52.122;5.250;2024-03-07T03:41:21;98.2;;;59.8;;
62457;SDS011;48509;52.122;5.250;2024-03-07T03:42:58;98.9;;;59.3;;
62457;SDS011;48509;52.122;5.250;2024-03-07T03:46:10;93.5;;;58.9;;
62457;SDS011;48509;52.122;5.250;2024-03-07T03:47:46;99.0;;;60.0;;
62457;SDS011;48509;52.122;5.250;2024-03-07T03:49:22;102.6;;;62.7;;
62457;SDS011;48509;52.122;5.250;2024-03-07T03:52:35;101.2;;;61.5;;
62457;SDS011;48509;52.122;5.250;2024-03-07T03:54:11;100.8;;;61.0;;
62457;SDS011;48509;52.122;5.250;2024-03-07T03:55:47;106.1;;;62.4;;
62457;SDS011;48509;52.122;5.250;2024-03-07T03:57:23;88.5;;;54.3;;
62457;SDS011;48509;52.122;5.250;2024-03-07T04:00:35;95.6;;;56.1;;
62457;SDS011;48509;52.122;5.250;2024-03-07T04:02:11;101.1;;;61.0;;
62457;SDS011;48509;52.122;5.250;2024-03-07T04:03:47;100.8;;;61.1;;
62457;SDS011;48509;52.122;5.250;2024-03-07T04:07:00;89.1;;;55.4;;
62457;SDS011;48509;52.122;5.250;2024-03-07T04:08:36;94.1;;;58.2;;
62457;SDS011;48509;52.122;5.250;2024-03-07T04:10:15;85.1;;;52.8;;
62457;SDS011;48509;52.122;5.250;2024-03-07T04:13:28;97.0;;;60.9;;
62457;SDS011;48509;52.122;5.250;2024-03-07T04:15:10;89.1;;;54.7;;
62457;SDS011;48509;52.122;5.250;2024-03-07T04:16:49;91.0;;;57.7;;
62457;SDS011;48509;52.122;5.250;2024-03-07T04:18:25;100.3;;;59.5;;
62457;SDS011;48509;52.122;5.250;2024-03-07T04:21:40;87.2;;;54.7;;
62457;SDS011;48509;52.122;5.250;2024-03-07T04:23:16;91.3;;;56.2;;
62457;SDS011;48509;52.122;5.250;2024-03-07T04:24:52;97.3;;;59.9;;
62457;SDS011;48509;52.122;5.250;2024-03-07T04:28:04;91.9;;;57.3;;
62457;SDS011;48509;52.122;5.250;2024-03-07T04:29:40;86.2;;;55.6;;
62457;SDS011;48509;52.122;5.250;2024-03-07T04:31:16;94.6;;;59.6;;
62457;SDS011;48509;52.122;5.250;2024-03-07T04:34:29;94.7;;;60.2;;
62457;SDS011;48509;52.122;5.250;2024-03-07T04:36:05;93.2;;;60.1;;
62457;SDS011;48509;52.122;5.250;2024-03-07T04:37:41;98.3;;;60.4;;
62457;SDS011;48509;52.122;5.250;2024-03-07T04:39:17;97.4;;;61.5;;
62457;SDS011;48509;52.122;5.250;2024-03-07T04:42:29;103.4;;;60.9;;
62457;SDS011;48509;52.122;5.250;2024-03-07T04:44:05;92.0;;;58.8;;
62457;SDS011;48509;52.122;5.250;2024-03-07T04:45:42;106.1;;;63.1;;
62457;SDS011;48509;52.122;5.250;2024-03-07T04:48:54;93.5;;;59.0;;
62457;SDS011;48509;52.122;5.250;2024-03-07T04:50:30;104.6;;;63.2;;
62457;SDS011;48509;52.122;5.250;2024-03-07T04:52:06;111.8;;;66.6;;
62457;SDS011;48509;52.122;5.250;2024-03-07T04:55:18;102.9;;;63.5;;
62457;SDS011;48509;52.122;5.250;2024-03-07T04:56:55;105.1;;;62.4;;
62457;SDS011;48509;52.122;5.250;2024-03-07T04:58:31;102.8;;;62.5;;
62457;SDS011;48509;52.122;5.250;2024-03-07T05:00:11;97.5;;;59.8;;
62457;SDS011;48509;52.122;5.250;2024-03-07T05:03:26;101.6;;;62.2;;
62457;SDS011;48509;52.122;5.250;2024-03-07T05:05:02;109.3;;;66.5;;
62457;SDS011;48509;52.122;5.250;2024-03-07T05:06:38;114.6;;;67.8;;
62457;SDS011;48509;52.122;5.250;2024-03-07T05:09:51;105.9;;;64.0;;
62457;SDS011;48509;52.122;5.250;2024-03-07T05:11:28;106.8;;;64.91;;
62457;SDS011;48509;52.122;5.250;2024-03-07T05:13:04;101.9;;;62.4;;
62457;SDS011;48509;52.122;5.250;2024-03-07T05:16:16;93.7;;;58.4;;
62457;SDS011;48509;52.122;5.250;2024-03-07T05:17:53;87.6;;;55.4;;
62457;SDS011;48509;52.122;5.250;2024-03-07T05:19:29;101.2;;;61.2;;
62457;SDS011;48509;52.122;5.250;2024-03-07T05:21:05;97.9;;;60.5;;
62457;SDS011;48509;52.122;5.250;2024-03-07T05:24:17;106.7;;;60.7;;
62457;SDS011;48509;52.122;5.250;2024-03-07T05:25:54;102.6;;;61.6;;
62457;SDS011;48509;52.122;5.250;2024-03-07T05:27:30;107.8;;;63.3;;
62457;SDS011;48509;52.122;5.250;2024-03-07T05:30:44;98.0;;;60.9;;
62457;SDS011;48509;52.122;5.250;2024-03-07T05:32:21;106.2;;;63.6;;
62457;SDS011;48509;52.122;5.250;2024-03-07T05:33:57;104.5;;;65.0;;
62457;SDS011;48509;52.122;5.250;2024-03-07T05:37:09;103.5;;;62.6;;
62457;SDS011;48509;52.122;5.250;2024-03-07T05:38:46;104.0;;;62.9;;
62457;SDS011;48509;52.122;5.250;2024-03-07T05:40:22;105.4;;;62.1;;
62457;SDS011;48509;52.122;5.250;2024-03-07T05:41:58;107.4;;;62.4;;
62457;SDS011;48509;52.122;5.250;2024-03-07T05:45:10;106.6;;;64.3;;
62457;SDS011;48509;52.122;5.250;2024-03-07T05:46:46;101.8;;;61.8;;
62457;SDS011;48509;52.122;5.250;2024-03-07T05:48:22;105.5;;;61.4;;
62457;SDS011;48509;52.122;5.250;2024-03-07T05:51:34;107.8;;;63.6;;
62457;SDS011;48509;52.122;5.250;2024-03-07T05:53:11;97.1;;;60.8;;
62457;SDS011;48509;52.122;5.250;2024-03-07T05:54:47;103.9;;;61.5;;
62457;SDS011;48509;52.122;5.250;2024-03-07T05:58:02;89.4;;;53.4;;
62457;SDS011;48509;52.122;5.250;2024-03-07T05:59:38;103.9;;;61.5;;
62457;SDS011;48509;52.122;5.250;2024-03-07T06:01:14;100.9;;;60.3;;
62457;SDS011;48509;52.122;5.250;2024-03-07T06:04:26;98.4;;;60.3;;
62457;SDS011;48509;52.122;5.250;2024-03-07T06:06:03;88.2;;;56.4;;
62457;SDS011;48509;52.122;5.250;2024-03-07T06:07:39;88.2;;;56.4;;
62457;SDS011;48509;52.122;5.250;2024-03-07T06:09:15;95.5;;;59.2;;
62457;SDS011;48509;52.122;5.250;2024-03-07T06:12:27;93.6;;;58.3;;
62457;SDS011;48509;52.122;5.250;2024-03-07T06:14:03;102.1;;;62.2;;
62457;SDS011;48509;52.122;5.250;2024-03-07T06:15:42;102.8;;;60.1;;
62457;SDS011;48509;52.122;5.250;2024-03-07T06:18:55;93.2;;;56.6;;
62457;SDS011;48509;52.122;5.250;2024-03-07T06:20:32;96.1;;;59.3;;
62457;SDS011;48509;52.122;5.250;2024-03-07T06:22:08;108.9;;;63.6;;
62457;SDS011;48509;52.122;5.250;2024-03-07T06:25:20;102.4;;;60.7;;
62457;SDS011;48509;52.122;5.250;2024-03-07T06:26:56;101.3;;;60.3;;
62457;SDS011;48509;52.122;5.250;2024-03-07T06:28:32;96.4;;;58.5;;
62457;SDS011;48509;52.122;5.250;2024-03-07T06:30:09;102.5;;;59.3;;
62457;SDS011;48509;52.122;5.250;2024-03-07T06:33:22;91.1;;;57.0;;
62457;SDS011;48509;52.122;5.250;2024-03-07T06:34:58;95.0;;;59.7;;
62457;SDS011;48509;52.122;5.250;2024-03-07T06:36:34;94.3;;;59.5;;
62457;SDS011;48509;52.122;5.250;2024-03-07T06:39:47;104.3;;;62.6;;
62457;SDS011;48509;52.122;5.250;2024-03-07T06:41:23;89.4;;;56.6;;
62457;SDS011;48509;52.122;5.250;2024-03-07T06:42:59;97.0;;;59.7;;
62457;SDS011;48509;52.122;5.250;2024-03-07T06:46:13;89.0;;;55.0;;
62457;SDS011;48509;52.122;5.250;2024-03-07T06:47:49;93.1;;;60.3;;
62457;SDS011;48509;52.122;5.250;2024-03-07T06:49:25;91.5;;;58.0;;
62457;SDS011;48509;52.122;5.250;2024-03-07T06:51:01;80.0;;;50.9;;
62457;SDS011;48509;52.122;5.250;2024-03-07T06:54:13;89.3;;;55.8;;
62457;SDS011;48509;52.122;5.250;2024-03-07T06:55:49;91.7;;;57.3;;
62457;SDS011;48509;52.122;5.250;2024-03-07T06:57:25;97.5;;;59.1;;
62457;SDS011;48509;52.122;5.250;2024-03-07T07:00:38;98.2;;;59.2;;
62457;SDS011;48509;52.122;5.250;2024-03-07T07:02:14;94.4;;;59.8;;
62457;SDS011;48509;52.122;5.250;2024-03-07T07:03:50;92.2;;;58.1;;
62457;SDS011;48509;52.122;5.250;2024-03-07T07:07:02;91.5;;;56.4;;
62457;SDS011;48509;52.122;5.250;2024-03-07T07:08:39;90.8;;;54.8;;
62457;SDS011;48509;52.122;5.250;2024-03-07T07:10:14;87.6;;;56.6;;
62457;SDS011;48509;52.122;5.250;2024-03-07T07:13:27;98.3;;;61.0;;
62457;SDS011;48509;52.122;5.250;2024-03-07T07:15:03;98.6;;;59.8;;
62457;SDS011;48509;52.122;5.250;2024-03-07T07:16:40;89.5;;;57.0;;
62457;SDS011;48509;52.122;5.250;2024-03-07T07:18:16;91.3;;;55.4;;
62457;SDS011;48509;52.122;5.250;2024-03-07T07:21:28;91.2;;;56.8;;
62457;SDS011;48509;52.122;5.250;2024-03-07T07:23:04;95.7;;;56.2;;
62457;SDS011;48509;52.122;5.250;2024-03-07T07:24:40;90.1;;;55.5;;
62457;SDS011;48509;52.122;5.250;2024-03-07T07:27:53;87.5;;;56.9;;
62457;SDS011;48509;52.122;5.250;2024-03-07T07:29:29;96.4;;;57.8;;
62457;SDS011;48509;52.122;5.250;2024-03-07T07:31:05;93.6;;;58.2;;
62457;SDS011;48509;52.122;5.250;2024-03-07T07:34:18;106.5;;;64.3;;
62457;SDS011;48509;52.122;5.250;2024-03-07T07:35:54;87.5;;;55.5;;
62457;SDS011;48509;52.122;5.250;2024-03-07T07:37:30;92.1;;;57.3;;
62457;SDS011;48509;52.122;5.250;2024-03-07T07:39:07;89.5;;;55.3;;
62457;SDS011;48509;52.122;5.250;2024-03-07T07:42:19;87.0;;;56.7;;
62457;SDS011;48509;52.122;5.250;2024-03-07T07:43:55;88.0;;;55.1;;
62457;SDS011;48509;52.122;5.250;2024-03-07T07:45:31;84.4;;;55.0;;
62457;SDS011;48509;52.122;5.250;2024-03-07T07:48:43;91.0;;;58.3;;
62457;SDS011;48509;52.122;5.250;2024-03-07T07:50:20;85.7;;;54.9;;
62457;SDS011;48509;52.122;5.250;2024-03-07T07:51:58;90.7;;;58.4;;
62457;SDS011;48509;52.122;5.250;2024-03-07T07:55:11;82.4;;;55.0;;
62457;SDS011;48509;52.122;5.250;2024-03-07T07:56:47;81.61;;;53.3;;
62457;SDS011;48509;52.122;5.250;2024-03-07T07:58:23;86.7;;;55.6;;
62457;SDS011;48509;52.122;5.250;2024-03-07T08:01:35;82.9;;;54.7;;
62457;SDS011;48509;52.122;5.250;2024-03-07T08:03:11;89.4;;;54.9;;
62457;SDS011;48509;52.122;5.250;2024-03-07T08:04:48;82.4;;;54.9;;
62457;SDS011;48509;52.122;5.250;2024-03-07T08:06:24;87.2;;;53.9;;
62457;SDS011;48509;52.122;5.250;2024-03-07T08:09:38;97.6;;;60.4;;
62457;SDS011;48509;52.122;5.250;2024-03-07T08:11:14;93.0;;;58.4;;
62457;SDS011;48509;52.122;5.250;2024-03-07T08:12:50;85.1;;;54.0;;
62457;SDS011;48509;52.122;5.250;2024-03-07T08:16:03;81.3;;;52.4;;
62457;SDS011;48509;52.122;5.250;2024-03-07T08:17:40;78.8;;;53.8;;
62457;SDS011;48509;52.122;5.250;2024-03-07T08:19:18;75.0;;;50.6;;
62457;SDS011;48509;52.122;5.250;2024-03-07T08:22:30;71.11;;;48.6;;
62457;SDS011;48509;52.122;5.250;2024-03-07T08:24:06;74.61;;;48.3;;
62457;SDS011;48509;52.122;5.250;2024-03-07T08:25:42;68.1;;;46.2;;
62457;SDS011;48509;52.122;5.250;2024-03-07T08:27:18;66.6;;;46.9;;
62457;SDS011;48509;52.122;5.250;2024-03-07T08:30:30;70.61;;;46.0;;
62457;SDS011;48509;52.122;5.250;2024-03-07T08:32:07;70.11;;;44.6;;
62457;SDS011;48509;52.122;5.250;2024-03-07T08:33:44;66.91;;;44.5;;
62457;SDS011;48509;52.122;5.250;2024-03-07T08:36:56;64.7;;;42.4;;
62457;SDS011;48509;52.122;5.250;2024-03-07T08:38:35;65.41;;;42.8;;
62457;SDS011;48509;52.122;5.250;2024-03-07T08:40:12;65.41;;;42.8;;
62457;SDS011;48509;52.122;5.250;2024-03-07T08:43:24;62.3;;;40.9;;
62457;SDS011;48509;52.122;5.250;2024-03-07T08:45:01;58.4;;;39.21;;
62457;SDS011;48509;52.122;5.250;2024-03-07T08:46:39;58.4;;;40.0;;
62457;SDS011;48509;52.122;5.250;2024-03-07T08:48:15;61.2;;;40.31;;
62457;SDS011;48509;52.122;5.250;2024-03-07T08:51:27;59.6;;;40.4;;
62457;SDS011;48509;52.122;5.250;2024-03-07T08:53:03;57.4;;;38.31;;
62457;SDS011;48509;52.122;5.250;2024-03-07T08:54:41;56.9;;;38.9;;
62457;SDS011;48509;52.122;5.250;2024-03-07T08:57:53;56.6;;;37.81;;
62457;SDS011;48509;52.122;5.250;2024-03-07T08:59:30;52.0;;;36.21;;
62457;SDS011;48509;52.122;5.250;2024-03-07T09:01:09;53.3;;;36.21;;
62457;SDS011;48509;52.122;5.250;2024-03-07T09:04:21;50.5;;;34.31;;
62457;SDS011;48509;52.122;5.250;2024-03-07T09:05:57;48.7;;;33.0;;
62457;SDS011;48509;52.122;5.250;2024-03-07T09:07:33;49.1;;;31.9;;
62457;SDS011;48509;52.122;5.250;2024-03-07T09:09:09;45.3;;;31.4;;
62457;SDS011;48509;52.122;5.250;2024-03-07T09:12:22;41.7;;;29.6;;
62457;SDS011;48509;52.122;5.250;2024-03-07T09:13:58;43.6;;;29.9;;
62457;SDS011;48509;52.122;5.250;2024-03-07T09:15:34;42.3;;;28.6;;
62457;SDS011;48509;52.122;5.250;2024-03-07T09:18:46;37.71;;;27.7;;
62457;SDS011;48509;52.122;5.250;2024-03-07T09:20:22;39.4;;;28.3;;
62457;SDS011;48509;52.122;5.250;2024-03-07T09:21:58;35.6;;;26.9;;
62457;SDS011;48509;52.122;5.250;2024-03-07T09:25:10;40.6;;;27.5;;
62457;SDS011;48509;52.122;5.250;2024-03-07T09:26:47;39.0;;;26.8;;
62457;SDS011;48509;52.122;5.250;2024-03-07T09:28:24;33.5;;;24.1;;
62457;SDS011;48509;52.122;5.250;2024-03-07T09:30:00;33.5;;;24.1;;
62457;SDS011;48509;52.122;5.250;2024-03-07T09:33:12;31.1;;;23.1;;
62457;SDS011;48509;52.122;5.250;2024-03-07T09:34:48;32.5;;;23.2;;
62457;SDS011;48509;52.122;5.250;2024-03-07T09:36:24;33.4;;;23.2;;
62457;SDS011;48509;52.122;5.250;2024-03-07T09:39:36;29.5;;;22.0;;
62457;SDS011;48509;52.122;5.250;2024-03-07T09:41:14;31.8;;;22.5;;
62457;SDS011;48509;52.122;5.250;2024-03-07T09:42:51;32.8;;;23.4;;
62457;SDS011;48509;52.122;5.250;2024-03-07T09:46:04;29.4;;;23.2;;
62457;SDS011;48509;52.122;5.250;2024-03-07T09:47:42;31.0;;;23.8;;
62457;SDS011;48509;52.122;5.250;2024-03-07T09:49:22;31.2;;;24.2;;
62457;SDS011;48509;52.122;5.250;2024-03-07T09:51:00;31.8;;;23.4;;
62457;SDS011;48509;52.122;5.250;2024-03-07T09:54:19;32.9;;;23.6;;
62457;SDS011;48509;52.122;5.250;2024-03-07T09:55:55;34.1;;;23.8;;
62457;SDS011;48509;52.122;5.250;2024-03-07T09:57:31;33.6;;;22.7;;
62457;SDS011;48509;52.122;5.250;2024-03-07T10:00:48;30.0;;;22.8;;
62457;SDS011;48509;52.122;5.250;2024-03-07T10:02:25;30.2;;;22.2;;
62457;SDS011;48509;52.122;5.250;2024-03-07T10:04:02;30.6;;;22.4;;
62457;SDS011;48509;52.122;5.250;2024-03-07T10:05:43;31.1;;;23.1;;
62457;SDS011;48509;52.122;5.250;2024-03-07T10:08:57;32.21;;;22.6;;
62457;SDS011;48509;52.122;5.250;2024-03-07T10:10:33;35.71;;;22.7;;
62457;SDS011;48509;52.122;5.250;2024-03-07T10:12:09;32.21;;;22.4;;
62457;SDS011;48509;52.122;5.250;2024-03-07T10:15:21;31.3;;;22.5;;
62457;SDS011;48509;52.122;5.250;2024-03-07T10:17:02;33.4;;;22.5;;
62457;SDS011;48509;52.122;5.250;2024-03-07T10:18:41;45.0;;;24.2;;
62457;SDS011;48509;52.122;5.250;2024-03-07T10:20:18;34.81;;;23.2;;
62457;SDS011;48509;52.122;5.250;2024-03-07T10:23:31;32.5;;;24.0;;
62457;SDS011;48509;52.122;5.250;2024-03-07T10:25:07;35.71;;;23.1;;
62457;SDS011;48509;52.122;5.250;2024-03-07T10:26:44;34.9;;;25.1;;
62457;SDS011;48509;52.122;5.250;2024-03-07T10:29:56;33.21;;;24.2;;
62457;SDS011;48509;52.122;5.250;2024-03-07T10:31:36;36.6;;;25.0;;
62457;SDS011;48509;52.122;5.250;2024-03-07T10:33:12;36.6;;;24.8;;
62457;SDS011;48509;52.122;5.250;2024-03-07T10:36:26;37.0;;;24.9;;
62457;SDS011;48509;52.122;5.250;2024-03-07T10:38:02;36.1;;;24.0;;
62457;SDS011;48509;52.122;5.250;2024-03-07T10:39:38;31.2;;;23.6;;
62457;SDS011;48509;52.122;5.250;2024-03-07T10:41:14;32.8;;;23.5;;
62457;SDS011;48509;52.122;5.250;2024-03-07T10:44:33;31.6;;;22.6;;
62457;SDS011;48509;52.122;5.250;2024-03-07T10:46:16;31.7;;;22.2;;
62457;SDS011;48509;52.122;5.250;2024-03-07T10:47:56;34.21;;;22.4;;
62457;SDS011;48509;52.122;5.250;2024-03-07T10:49:35;36.5;;;23.0;;
62457;SDS011;48509;52.122;5.250;2024-03-07T10:53:06;32.5;;;22.7;;
62457;SDS011;48509;52.122;5.250;2024-03-07T10:54:53;35.71;;;23.6;;
62457;SDS011;48509;52.122;5.250;2024-03-07T10:56:46;33.5;;;23.9;;
62457;SDS011;48509;52.122;5.250;2024-03-07T10:58:47;36.81;;;24.2;;
62457;SDS011;48509;52.122;5.250;2024-03-07T11:00:34;33.5;;;23.2;;
62457;SDS011;48509;52.122;5.250;2024-03-07T11:02:14;32.5;;;22.3;;
62457;SDS011;48509;52.122;5.250;2024-03-07T11:05:36;33.8;;;22.7;;
62457;SDS011;48509;52.122;5.250;2024-03-07T11:07:13;33.4;;;23.2;;
62457;SDS011;48509;52.122;5.250;2024-03-07T11:08:49;32.1;;;23.5;;
62457;SDS011;48509;52.122;5.250;2024-03-07T11:10:27;32.3;;;22.2;;
62457;SDS011;48509;52.122;5.250;2024-03-07T11:13:42;36.9;;;23.9;;
62457;SDS011;48509;52.122;5.250;2024-03-07T11:15:20;31.6;;;22.7;;
62457;SDS011;48509;52.122;5.250;2024-03-07T11:16:59;32.3;;;22.5;;
62457;SDS011;48509;52.122;5.250;2024-03-07T11:20:18;34.81;;;22.9;;
62457;SDS011;48509;52.122;5.250;2024-03-07T11:21:55;32.1;;;21.3;;
62457;SDS011;48509;52.122;5.250;2024-03-07T11:23:32;32.1;;;21.3;;
62457;SDS011;48509;52.122;5.250;2024-03-07T11:25:09;33.8;;;22.4;;
62457;SDS011;48509;52.122;5.250;2024-03-07T11:28:28;30.0;;;22.1;;
62457;SDS011;48509;52.122;5.250;2024-03-07T11:30:06;31.2;;;22.6;;
62457;SDS011;48509;52.122;5.250;2024-03-07T11:31:43;32.71;;;22.3;;
62457;SDS011;48509;52.122;5.250;2024-03-07T11:34:56;32.71;;;22.3;;
62457;SDS011;48509;52.122;5.250;2024-03-07T11:36:44;33.9;;;23.0;;
62457;SDS011;48509;52.122;5.250;2024-03-07T11:38:20;31.8;;;23.0;;
62457;SDS011;48509;52.122;5.250;2024-03-07T11:39:56;30.2;;;21.6;;
62457;SDS011;48509;52.122;5.250;2024-03-07T11:43:10;34.0;;;22.8;;
62457;SDS011;48509;52.122;5.250;2024-03-07T11:44:47;31.9;;;21.8;;
62457;SDS011;48509;52.122;5.250;2024-03-07T11:46:24;30.1;;;22.4;;
62457;SDS011;48509;52.122;5.250;2024-03-07T11:49:36;30.5;;;21.6;;
62457;SDS011;48509;52.122;5.250;2024-03-07T11:51:12;29.5;;;21.9;;
62457;SDS011;48509;52.122;5.250;2024-03-07T11:52:48;33.8;;;23.4;;
62457;SDS011;48509;52.122;5.250;2024-03-07T11:54:24;34.1;;;22.8;;
62457;SDS011;48509;52.122;5.250;2024-03-07T11:57:37;32.8;;;22.2;;
62457;SDS011;48509;52.122;5.250;2024-03-07T11:59:14;33.71;;;23.4;;
62457;SDS011;48509;52.122;5.250;2024-03-07T12:00:50;35.0;;;23.3;;
62457;SDS011;48509;52.122;5.250;2024-03-07T12:04:05;31.9;;;23.1;;
62457;SDS011;48509;52.122;5.250;2024-03-07T12:05:41;35.5;;;23.1;;
62457;SDS011;48509;52.122;5.250;2024-03-07T12:07:19;32.3;;;23.5;;
62457;SDS011;48509;52.122;5.250;2024-03-07T12:10:32;31.8;;;23.1;;
62457;SDS011;48509;52.122;5.250;2024-03-07T12:12:08;34.81;;;23.6;;
62457;SDS011;48509;52.122;5.250;2024-03-07T12:13:44;34.6;;;22.9;;
62457;SDS011;48509;52.122;5.250;2024-03-07T12:15:20;32.9;;;22.2;;
62457;SDS011;48509;52.122;5.250;2024-03-07T12:18:32;30.8;;;22.7;;
62457;SDS011;48509;52.122;5.250;2024-03-07T12:20:10;33.4;;;22.2;;
62457;SDS011;48509;52.122;5.250;2024-03-07T12:21:47;30.9;;;22.6;;
62457;SDS011;48509;52.122;5.250;2024-03-07T12:25:00;32.1;;;22.2;;
62457;SDS011;48509;52.122;5.250;2024-03-07T12:26:37;33.6;;;22.2;;
62457;SDS011;48509;52.122;5.250;2024-03-07T12:28:13;31.5;;;21.0;;
62457;SDS011;48509;52.122;5.250;2024-03-07T12:31:26;35.21;;;22.2;;
62457;SDS011;48509;52.122;5.250;2024-03-07T12:33:03;32.5;;;20.11;;
62457;SDS011;48509;52.122;5.250;2024-03-07T12:34:40;29.0;;;20.6;;